Time;durP1;ratioP1;P1;durP2;ratioP2;P2;SDS_P1;SDS_P2;PMS_P1;PMS_P2;Temp;Humidity;BMP_temperature;BMP_pressure;BME280_temperature;BME280_humidity;BME280_pressure;Samples;Min_cycle;Max_cycle;Signal;HPM_P1;HPM_P2
2022/07/12 00:00:26;;;;;;;1.47;1.20;;;17.80;90.70;;;;;;21001510;28;20251;-73
2022/07/12 00:10:28;;;;;;;3.60;1.40;;;17.80;90.80;;;;;;21000795;28;20211;-73
2022/07/12 00:20:29;;;;;;;1.20;1.10;;;17.80;91.00;;;;;;21028616;28;20238;-71
2022/07/12 00:30:31;;;;;;;2.20;1.40;;;17.90;91.20;;;;;;21079090;28;20205;-71
2022/07/12 00:40:33;;;;;;;2.07;1.30;;;17.80;91.20;;;;;;21082506;28;20244;-71
2022/07/12 00:50:35;;;;;;;1.30;1.07;;;18.00;91.40;;;;;;21082105;28;20216;-70
2022/07/12 01:00:37;;;;;;;1.70;1.30;;;18.00;91.40;;;;;;21080811;28;20238;-69
2022/07/12 01:10:39;;;;;;;1.10;1.00;;;18.00;91.40;;;;;;21080577;28;20202;-71
2022/07/12 01:20:42;;;;;;;1.30;1.20;;;17.90;91.50;;;;;;21090568;28;20241;-71
2022/07/12 01:30:43;;;;;;;1.50;1.40;;;17.80;91.70;;;;;;21100755;28;20547;-71
2022/07/12 01:40:45;;;;;;;2.50;1.57;;;17.70;91.90;;;;;;21079015;28;20238;-72
2022/07/12 01:50:48;;;;;;;3.27;1.20;;;17.60;92.00;;;;;;21078547;28;20206;-71
2022/07/12 02:00:52;;;;;;;1.40;1.30;;;17.40;92.40;;;;;;21078513;28;20240;-72
2022/07/12 02:10:53;;;;;;;2.43;1.20;;;17.40;92.40;;;;;;21087533;28;20549;-75
2022/07/12 02:20:56;;;;;;;8.37;1.50;;;17.30;92.60;;;;;;21064543;28;20241;-74
2022/07/12 02:31:00;;;;;;;1.50;1.30;;;17.20;92.80;;;;;;21005950;28;20210;-69
2022/07/12 02:41:02;;;;;;;3.00;2.00;;;17.10;92.80;;;;;;21008904;28;20243;-70
2022/07/12 02:51:06;;;;;;;5.20;1.50;;;17.00;93.20;;;;;;21007722;28;20716;-70
2022/07/12 03:01:07;;;;;;;2.60;2.00;;;16.90;93.60;;;;;;21009526;28;20238;-71
2022/07/12 03:11:09;;;;;;;2.10;1.90;;;16.80;93.70;;;;;;21008228;28;20207;-71
2022/07/12 03:21:11;;;;;;;3.43;1.53;;;16.50;94.00;;;;;;21016322;28;20233;-68
2022/07/12 03:31:15;;;;;;;2.10;1.50;;;16.50;94.20;;;;;;21007410;28;20209;-69
2022/07/12 03:41:17;;;;;;;1.97;1.70;;;16.40;94.30;;;;;;21003932;28;20239;-72
2022/07/12 03:51:19;;;;;;;3.93;1.93;;;16.30;94.40;;;;;;20987823;28;20207;-73
2022/07/12 04:01:20;;;;;;;5.00;1.63;;;16.30;94.60;;;;;;20988350;28;20694;-69
2022/07/12 04:11:22;;;;;;;2.40;1.83;;;16.20;94.70;;;;;;21003619;28;20213;-73
2022/07/12 04:21:24;;;;;;;1.87;1.67;;;16.10;94.60;;;;;;21004949;28;20283;-70
2022/07/12 04:31:26;;;;;;;2.03;1.70;;;16.00;94.70;;;;;;21000200;28;20207;-68
2022/07/12 04:41:28;;;;;;;4.23;1.90;;;16.00;94.90;;;;;;21001862;28;20240;-74
2022/07/12 04:51:29;;;;;;;8.37;2.50;;;16.00;94.90;;;;;;21041462;28;20242;-73
2022/07/12 05:01:32;;;;;;;12.43;2.00;;;16.00;94.80;;;;;;21059995;28;20548;-71
2022/07/12 05:11:34;;;;;;;9.47;3.03;;;16.10;95.00;;;;;;21027550;28;20298;-70
2022/07/12 05:21:36;;;;;;;14.23;3.00;;;16.20;95.00;;;;;;21042004;28;20240;-71
2022/07/12 05:31:37;;;;;;;10.50;2.83;;;16.30;95.10;;;;;;21043908;28;20237;-73
2022/07/12 05:41:39;;;;;;;15.43;3.90;;;16.40;95.10;;;;;;21033364;28;20737;-68
2022/07/12 06:02:02;;;;;;;8.07;2.80;;;16.90;95.10;;;;;;21009595;28;20230;-71
2022/07/12 06:12:05;;;;;;;16.00;3.60;;;17.10;95.20;;;;;;21039576;28;20266;-72
2022/07/12 06:22:06;;;;;;;6.77;4.43;;;17.40;95.20;;;;;;21049569;28;20720;-71
2022/07/12 06:32:08;;;;;;;7.40;3.37;;;17.70;95.30;;;;;;21089429;28;20657;-71
2022/07/12 06:42:10;;;;;;;17.10;3.10;;;18.10;95.10;;;;;;21093697;28;20284;-71
2022/07/12 06:52:11;;;;;;;15.70;3.40;;;18.30;94.90;;;;;;21103608;28;20254;-71
2022/07/12 07:02:13;;;;;;;19.57;2.80;;;18.60;94.90;;;;;;21104547;28;20317;-69
2022/07/12 07:12:16;;;;;;;6.30;3.10;;;18.90;94.80;;;;;;21112955;28;20231;-70
2022/07/12 07:22:19;;;;;;;4.47;2.70;;;19.20;94.40;;;;;;21098264;28;20237;-72
2022/07/12 07:32:21;;;;;;;13.50;8.57;;;19.50;94.10;;;;;;21086487;28;20217;-70
2022/07/12 07:42:22;;;;;;;134.63;70.10;;;19.60;93.90;;;;;;21085603;28;20603;-68
2022/07/12 07:52:24;;;;;;;21.10;12.13;;;19.70;93.60;;;;;;21083709;28;20205;-71
2022/07/12 08:02:26;;;;;;;5.70;3.97;;;20.00;93.20;;;;;;21083666;28;20294;-68
2022/07/12 08:12:28;;;;;;;1.90;1.70;;;20.10;92.40;;;;;;21082553;28;20219;-71
2022/07/12 08:22:29;;;;;;;3.47;2.10;;;20.20;92.00;;;;;;21052060;28;20340;-71
2022/07/12 08:32:31;;;;;;;4.90;2.60;;;20.30;91.40;;;;;;20978346;28;20275;-71
2022/07/12 08:42:33;;;;;;;2.27;1.53;;;20.50;90.90;;;;;;20991324;28;20344;-69
2022/07/12 08:52:39;;;;;;;3.20;1.50;;;21.00;90.30;;;;;;20991754;28;20238;-72
2022/07/12 09:02:55;;;;;;;6.13;1.60;;;21.20;88.80;;;;;;20978295;28;20324;-70
2022/07/12 09:12:57;;;;;;;2.53;1.60;;;21.00;87.30;;;;;;20993053;28;20280;-70
2022/07/12 09:23:04;;;;;;;2.97;1.37;;;20.90;86.00;;;;;;20975633;28;20237;-71
2022/07/12 09:43:28;;;;;;;1.67;1.20;;;21.30;82.80;;;;;;20992368;28;20600;-70
2022/07/12 09:53:37;;;;;;;4.43;1.20;;;21.80;81.10;;;;;;20998721;28;20207;-70
2022/07/12 10:03:40;;;;;;;1.30;1.13;;;21.70;78.50;;;;;;20997942;28;20601;-72
2022/07/12 10:13:43;;;;;;;1.60;1.30;;;22.10;77.20;;;;;;20993190;28;20310;-74
2022/07/12 10:23:45;;;;;;;1.30;1.20;;;22.40;75.40;;;;;;21016078;28;20698;-71
2022/07/12 10:33:47;;;;;;;2.43;1.10;;;22.70;73.60;;;;;;21085582;28;20545;-70
2022/07/12 10:44:04;;;;;;;4.50;1.33;;;23.00;72.40;;;;;;21090352;28;20353;-72
2022/07/12 10:54:22;;;;;;;1.63;1.10;;;23.20;70.70;;;;;;21090516;28;20218;-70
2022/07/12 11:04:24;;;;;;;1.30;1.10;;;23.30;68.80;;;;;;21090655;28;20238;-73
2022/07/12 11:14:33;;;;;;;5.77;1.03;;;23.50;67.40;;;;;;21128655;28;20211;-71
2022/07/12 11:24:35;;;;;;;1.53;1.20;;;23.60;66.20;;;;;;21101246;28;20230;-73
2022/07/12 11:34:38;;;;;;;0.93;0.93;;;23.60;64.30;;;;;;21086280;28;20211;-72
2022/07/12 11:44:50;;;;;;;2.83;1.90;;;23.70;63.60;;;;;;21082615;28;20244;-76
2022/07/12 11:54:53;;;;;;;1.30;1.17;;;24.00;63.30;;;;;;21083799;28;20270;-70
2022/07/12 12:04:55;;;;;;;1.70;1.00;;;24.20;62.10;;;;;;21082984;28;20270;-72
2022/07/12 12:15:05;;;;;;;1.60;1.03;;;24.40;61.00;;;;;;21084972;28;20252;-74
2022/07/12 12:25:12;;;;;;;4.50;1.37;;;24.80;59.60;;;;;;21051646;28;20239;-76
2022/07/12 12:35:17;;;;;;;0.90;0.90;;;25.20;58.30;;;;;;20996165;28;20609;-72
2022/07/12 12:45:21;;;;;;;1.73;1.20;;;25.40;55.80;;;;;;20994542;28;20242;-71
2022/07/12 12:55:23;;;;;;;2.43;1.20;;;25.60;55.30;;;;;;20992131;28;20207;-71
2022/07/12 13:05:26;;;;;;;2.53;1.17;;;25.60;55.20;;;;;;20994513;28;20243;-71
2022/07/12 13:15:28;;;;;;;4.40;2.40;;;25.60;55.10;;;;;;20994749;28;20210;-72
2022/07/12 13:25:31;;;;;;;0.90;0.90;;;25.70;54.80;;;;;;20994210;28;20239;-71
2022/07/12 13:35:32;;;;;;;2.90;1.20;;;25.80;53.40;;;;;;20993799;28;20215;-71
2022/07/12 13:45:34;;;;;;;1.20;1.10;;;25.80;52.80;;;;;;20990239;28;20778;-70
2022/07/12 13:55:36;;;;;;;1.93;1.20;;;26.00;52.90;;;;;;21001815;28;20697;-70
2022/07/12 14:05:38;;;;;;;3.17;1.70;;;26.10;52.00;;;;;;20999853;28;20231;-72
2022/07/12 14:15:42;;;;;;;2.10;0.90;;;26.20;51.50;;;;;;21007362;28;20203;-71
2022/07/12 14:25:43;;;;;;;1.83;1.70;;;26.30;51.00;;;;;;21004794;28;20729;-73
2022/07/12 14:35:46;;;;;;;2.50;1.87;;;26.40;50.40;;;;;;21007000;28;20203;-73
2022/07/12 14:45:48;;;;;;;3.77;1.10;;;26.50;50.10;;;;;;21009699;28;20274;-71
2022/07/12 14:55:49;;;;;;;2.23;0.80;;;26.60;49.60;;;;;;21034989;28;20211;-72
2022/07/12 15:05:51;;;;;;;2.17;1.30;;;27.80;46.90;;;;;;21027262;28;20330;-71
2022/07/12 15:15:53;;;;;;;1.17;1.00;;;27.30;46.50;;;;;;20994019;28;20615;-72
2022/07/12 15:25:55;;;;;;;1.50;1.40;;;27.00;46.70;;;;;;21014137;28;20231;-72
2022/07/12 15:35:56;;;;;;;2.60;1.00;;;27.60;45.10;;;;;;21006057;28;20211;-71
2022/07/12 15:45:58;;;;;;;0.80;0.80;;;27.30;45.80;;;;;;21019817;28;20239;-72
2022/07/12 15:56:08;;;;;;;1.30;1.17;;;27.10;44.50;;;;;;21036899;28;20677;-71
2022/07/12 16:06:10;;;;;;;1.67;1.30;;;27.10;44.10;;;;;;20985401;28;20235;-71
2022/07/12 16:16:12;;;;;;;0.80;0.80;;;28.70;42.40;;;;;;20999441;28;20278;-72
2022/07/12 16:26:14;;;;;;;0.73;0.70;;;31.00;39.20;;;;;;21005830;28;20237;-71
2022/07/12 16:36:16;;;;;;;0.50;0.50;;;28.90;40.70;;;;;;21060802;28;20209;-73
2022/07/12 16:46:18;;;;;;;0.80;0.80;;;28.10;41.70;;;;;;21081897;28;20740;-71
2022/07/12 16:56:24;;;;;;;5.43;1.70;;;27.50;42.00;;;;;;21081091;28;20213;-70
2022/07/12 17:06:29;;;;;;;8.03;1.57;;;27.10;43.60;;;;;;21080269;28;20242;-72
2022/07/12 17:16:31;;;;;;;2.37;0.93;;;26.80;46.80;;;;;;21068033;28;20234;-73
2022/07/12 17:26:33;;;;;;;5.97;1.43;;;26.70;46.40;;;;;;21051407;28;20583;-68
2022/07/12 17:36:34;;;;;;;2.10;1.00;;;27.50;45.30;;;;;;21040224;28;20245;-67
2022/07/12 17:46:36;;;;;;;7.67;1.27;;;27.40;44.70;;;;;;21020976;28;20243;-66
2022/07/12 17:56:38;;;;;;;3.95;1.10;;;27.30;45.50;;;;;;20994828;28;20238;-65
2022/07/12 18:06:42;;;;;;;1.27;1.17;;;28.00;45.00;;;;;;21067206;28;20698;-66
2022/07/12 18:16:43;;;;;;;22.53;1.83;;;27.00;46.20;;;;;;21074957;28;20203;-68
2022/07/12 18:26:45;;;;;;;2.77;0.80;;;26.40;47.20;;;;;;21072916;28;20670;-70
2022/07/12 18:36:47;;;;;;;2.33;0.90;;;26.00;46.90;;;;;;21075965;28;20206;-69
2022/07/12 18:46:55;;;;;;;2.37;0.87;;;25.80;46.00;;;;;;21061119;28;20259;-69
2022/07/12 18:56:56;;;;;;;2.03;0.80;;;25.50;45.50;;;;;;21088620;28;20213;-71
2022/07/12 19:06:58;;;;;;;0.93;0.73;;;25.30;45.50;;;;;;21087549;28;20238;-67
2022/07/12 19:17:00;;;;;;;2.23;1.10;;;25.10;45.90;;;;;;21087793;28;20203;-68
2022/07/12 19:27:01;;;;;;;4.07;1.17;;;24.90;46.70;;;;;;21087470;28;20226;-68
2022/07/12 19:37:03;;;;;;;8.87;1.40;;;24.60;47.80;;;;;;21084814;28;20542;-70
2022/07/12 19:47:05;;;;;;;5.30;1.40;;;24.40;49.50;;;;;;21084643;28;20242;-70
2022/07/12 19:57:07;;;;;;;3.33;1.60;;;24.20;50.50;;;;;;21083504;28;20210;-70
2022/07/12 20:07:09;;;;;;;7.03;2.63;;;24.00;52.20;;;;;;21081236;28;20231;-72
2022/07/12 20:17:11;;;;;;;10.83;2.60;;;23.70;53.30;;;;;;21081869;28;20203;-71
2022/07/12 20:27:13;;;;;;;4.77;1.90;;;23.50;53.70;;;;;;21081159;28;20292;-69
2022/07/12 20:37:15;;;;;;;5.90;1.40;;;23.20;53.90;;;;;;21080558;28;20203;-68
2022/07/12 20:47:16;;;;;;;4.87;1.60;;;23.00;54.30;;;;;;21104881;28;20286;-74
2022/07/12 20:57:18;;;;;;;3.57;1.70;;;22.80;54.80;;;;;;20997560;28;20226;-71
2022/07/12 21:07:20;;;;;;;3.13;1.33;;;22.60;55.50;;;;;;20994539;28;20241;-71
2022/07/12 21:17:21;;;;;;;8.23;1.40;;;22.40;56.10;;;;;;20994796;28;20689;-67
2022/07/12 21:27:23;;;;;;;7.27;1.50;;;22.20;56.70;;;;;;20995016;28;20241;-72
2022/07/12 21:37:25;;;;;;;4.20;1.50;;;21.90;57.50;;;;;;20994452;28;20207;-73
2022/07/12 21:47:28;;;;;;;5.97;1.80;;;21.70;58.50;;;;;;20994822;28;20247;-71
2022/07/12 21:57:30;;;;;;;3.73;1.40;;;21.50;59.00;;;;;;20995244;28;20203;-71
2022/07/12 22:07:32;;;;;;;7.03;1.67;;;21.20;59.70;;;;;;20994140;28;20280;-73
2022/07/12 22:17:33;;;;;;;4.70;1.30;;;21.10;60.60;;;;;;21013051;28;20271;-71
2022/07/12 22:27:35;;;;;;;3.77;1.40;;;20.80;61.50;;;;;;21081014;28;20236;-71
2022/07/12 22:37:40;;;;;;;4.30;1.40;;;20.60;62.10;;;;;;21092390;28;20666;-71
2022/07/12 22:47:42;;;;;;;3.87;1.60;;;20.50;62.80;;;;;;21092167;28;20250;-71
2022/07/12 22:57:44;;;;;;;6.90;1.60;;;20.30;63.60;;;;;;21091351;28;20202;-71
2022/07/12 23:07:45;;;;;;;4.40;1.47;;;20.10;64.20;;;;;;21096381;28;20700;-71
2022/07/12 23:17:47;;;;;;;4.93;1.27;;;19.90;65.20;;;;;;21103990;28;20305;-73
2022/07/12 23:27:49;;;;;;;3.30;1.50;;;19.80;66.00;;;;;;21089548;28;20246;-69
2022/07/12 23:37:51;;;;;;;5.10;1.47;;;19.70;66.50;;;;;;21088041;28;20204;-70
2022/07/12 23:47:52;;;;;;;8.33;1.70;;;19.50;67.40;;;;;;21087062;28;20596;-70
2022/07/12 23:57:54;;;;;;;2.53;1.43;;;19.30;69.00;;;;;;21086696;28;20210;-70
